Time;durP1;ratioP1;P1;durP2;ratioP2;P2;SDS_P1;SDS_P2;PMS_P1;PMS_P2;Temp;Humidity;BMP_temperature;BMP_pressure;BME280_temperature;BME280_humidity;BME280_pressure;Samples;Min_cycle;Max_cycle;Signal;HPM_P1;HPM_P2
2023/05/26 00:00:09;;;;;;;0.50;0.50;;;;;;;12.31;75.21;97505.66;29395;252;63014;-52
2023/05/26 00:00:40;;;;;;;0.55;0.55;;;;;;;12.29;75.24;97511.38;29395;226;63005;-53
2023/05/26 00:01:14;;;;;;;0.50;0.50;;;;;;;12.30;76.05;97509.47;29395;209;63009;-52
2023/05/26 00:01:46;;;;;;;0.50;0.50;;;;;;;12.29;76.50;97511.38;29395;215;63005;-52
2023/05/26 00:02:19;;;;;;;0.50;0.50;;;;;;;12.29;77.02;97513.28;29395;196;63009;-52
2023/05/26 00:02:51;;;;;;;0.50;0.50;;;;;;;12.25;76.96;97509.53;29395;197;63016;-61
2023/05/26 00:03:22;;;;;;;0.40;0.40;;;;;;;12.22;77.00;97507.38;29395;232;63009;-52
2023/05/26 00:03:56;;;;;;;0.40;0.40;;;;;;;12.21;77.25;97508.47;29395;213;63004;-54
2023/05/26 00:04:28;;;;;;;0.50;0.50;;;;;;;12.22;77.13;97513.63;29394;211;64013;-52
2023/05/26 00:05:01;;;;;;;0.40;0.40;;;;;;;12.21;76.56;97511.19;29395;235;63004;-52
2023/05/26 00:05:35;;;;;;;0.75;0.75;;;;;;;12.19;76.38;97518.81;29395;211;63008;-59
2023/05/26 00:06:10;;;;;;;0.50;0.50;;;;;;;12.18;76.38;97507.13;29395;268;63017;-52
2023/05/26 00:06:41;;;;;;;0.50;0.50;;;;;;;12.19;76.13;97508.75;29395;239;63009;-52
2023/05/26 00:07:15;;;;;;;0.50;0.50;;;;;;;12.19;76.73;97513.38;29395;198;63005;-54
2023/05/26 00:07:48;;;;;;;0.40;0.40;;;;;;;12.17;77.09;97510.94;29395;246;63009;-53
2023/05/26 00:08:22;;;;;;;0.50;0.50;;;;;;;12.15;77.38;97510.44;29395;227;63005;-61
2023/05/26 00:08:54;;;;;;;0.40;0.40;;;;;;;12.13;77.69;97515.34;29395;220;63009;-52
2023/05/26 00:09:29;;;;;;;0.40;0.40;;;;;;;12.12;77.49;97518.38;29395;232;63005;-52
2023/05/26 00:10:00;;;;;;;0.47;0.47;;;;;;;12.12;78.08;97518.38;29394;267;64013;-52
2023/05/26 00:10:31;;;;;;;0.40;0.40;;;;;;;12.12;78.16;97512.94;29395;202;63004;-53
2023/05/26 00:11:02;;;;;;;0.45;0.45;;;;;;;12.12;77.40;97512.94;29395;200;63009;-53
2023/05/26 00:11:33;;;;;;;0.40;0.40;;;;;;;12.13;77.29;97514.56;29394;222;64009;-53
2023/05/26 00:12:06;;;;;;;0.50;0.50;;;;;;;12.13;76.83;97512.62;29395;239;63014;-61
2023/05/26 00:12:38;;;;;;;0.50;0.50;;;;;;;12.13;76.59;97514.56;29395;237;63004;-53
2023/05/26 00:13:09;;;;;;;0.50;0.50;;;;;;;12.13;76.57;97511.84;29395;277;63008;-61
2023/05/26 00:13:42;;;;;;;0.50;0.50;;;;;;;12.12;76.58;97512.94;29395;232;63005;-54
2023/05/26 00:14:16;;;;;;;0.50;0.50;;;;;;;12.13;76.84;97509.91;29395;223;63009;-52
2023/05/26 00:14:48;;;;;;;0.50;0.50;;;;;;;12.12;77.07;97518.38;29395;234;63005;-61
2023/05/26 00:15:19;;;;;;;0.40;0.40;;;;;;;12.07;77.00;97520.03;29394;197;64013;-55
2023/05/26 00:15:52;;;;;;;0.50;0.50;;;;;;;12.05;77.04;97516.00;29395;236;63005;-53
2023/05/26 00:16:23;;;;;;;0.50;0.50;;;;;;;12.05;76.82;97514.09;29395;231;63009;-61
2023/05/26 00:16:54;;;;;;;0.50;0.50;;;;;;;12.05;76.73;97518.72;29395;237;63005;-53
2023/05/26 00:17:26;;;;;;;0.43;0.43;;;;;;;12.06;76.71;97521.16;29395;255;63009;-54
2023/05/26 00:18:01;;;;;;;0.50;0.50;;;;;;;12.07;76.42;97520.03;29395;309;63004;-53
2023/05/26 00:18:36;;;;;;;0.50;0.50;;;;;;;12.07;76.36;97511.88;29395;238;63009;-53
2023/05/26 00:19:07;;;;;;;0.60;0.60;;;;;;;12.05;76.75;97516.81;29395;238;63004;-53
2023/05/26 00:19:40;;;;;;;0.50;0.50;;;;;;;12.07;76.23;97513.78;29395;202;63008;-53
2023/05/26 00:20:13;;;;;;;0.50;0.50;;;;;;;12.07;76.54;97511.88;29395;227;63004;-53
2023/05/26 00:20:45;;;;;;;0.50;0.50;;;;;;;12.10;76.34;97515.13;29394;219;64014;-53
2023/05/26 00:21:16;;;;;;;0.50;0.50;;;;;;;12.11;76.33;97505.88;29395;216;63005;-53
2023/05/26 00:21:47;;;;;;;0.50;0.50;;;;;;;12.10;77.02;97520.56;29395;238;63009;-53
2023/05/26 00:22:19;;;;;;;0.40;0.40;;;;;;;12.08;77.47;97513.50;29395;224;63005;-53
2023/05/26 00:22:51;;;;;;;0.45;0.45;;;;;;;12.08;76.71;97513.50;29395;228;63009;-53
2023/05/26 00:23:23;;;;;;;0.50;0.50;;;;;;;12.08;77.15;97518.94;29395;207;63005;-53
2023/05/26 00:23:54;;;;;;;0.50;0.50;;;;;;;12.06;77.10;97517.63;29395;270;63009;-53
2023/05/26 00:24:26;;;;;;;0.50;0.50;;;;;;;12.02;77.28;97514.66;29394;211;64009;-53
2023/05/26 00:24:57;;;;;;;0.50;0.50;;;;;;;12.03;77.69;97518.19;29395;253;63009;-53
2023/05/26 00:25:28;;;;;;;0.50;0.50;;;;;;;12.02;77.88;97508.41;29395;215;63004;-53
2023/05/26 00:25:59;;;;;;;0.50;0.50;;;;;;;12.00;76.79;97518.75;29394;257;64013;-53
2023/05/26 00:26:31;;;;;;;0.50;0.50;;;;;;;11.98;77.38;97518.22;29395;228;63004;-53
2023/05/26 00:27:03;;;;;;;1.25;1.25;;;;;;;11.96;77.04;97514.97;29395;412;63009;-62
2023/05/26 00:27:35;;;;;;;0.50;0.50;;;;;;;11.93;77.41;97513.66;29395;252;63004;-54
2023/05/26 00:28:06;;;;;;;0.50;0.50;;;;;;;11.94;76.94;97512.53;29394;342;64014;-53
2023/05/26 00:28:38;;;;;;;0.50;0.50;;;;;;;11.94;77.32;97517.97;29395;263;63005;-53
2023/05/26 00:29:09;;;;;;;0.50;0.50;;;;;;;11.95;77.82;97514.16;29395;234;63009;-52
2023/05/26 00:29:41;;;;;;;0.50;0.50;;;;;;;11.94;78.27;97512.53;29395;253;63005;-52
2023/05/26 00:30:13;;;;;;;0.43;0.43;;;;;;;11.93;78.20;97512.84;29395;206;63009;-53
2023/05/26 00:30:45;;;;;;;0.40;0.40;;;;;;;11.93;78.25;97505.47;29394;204;64009;-53
2023/05/26 00:31:16;;;;;;;0.50;0.50;;;;;;;11.94;77.86;97509.00;29395;268;63009;-53
2023/05/26 00:31:47;;;;;;;0.45;0.45;;;;;;;11.96;77.33;97510.34;29394;232;64009;-53
2023/05/26 00:32:18;;;;;;;0.50;0.50;;;;;;;11.97;76.69;97517.41;29395;216;63009;-53
2023/05/26 00:32:50;;;;;;;0.50;0.50;;;;;;;11.96;77.07;97509.53;29395;240;63004;-53
2023/05/26 00:33:21;;;;;;;0.50;0.50;;;;;;;11.95;77.19;97514.16;29395;284;63009;-53
2023/05/26 00:33:52;;;;;;;0.50;0.50;;;;;;;11.96;77.57;97521.22;29395;240;63004;-53
2023/05/26 00:34:23;;;;;;;0.50;0.50;;;;;;;11.96;78.17;97510.34;29395;197;63016;-54
2023/05/26 00:34:54;;;;;;;0.50;0.50;;;;;;;11.97;78.20;97520.12;29395;246;63004;-53
2023/05/26 00:35:26;;;;;;;0.43;0.43;;;;;;;11.96;77.94;97515.78;29395;229;63008;-53
2023/05/26 00:35:57;;;;;;;0.45;0.45;;;;;;;11.95;77.45;97514.16;29395;197;63005;-53
2023/05/26 00:36:28;;;;;;;0.50;0.50;;;;;;;11.93;77.46;97508.19;29395;197;63009;-53
2023/05/26 00:37:00;;;;;;;0.50;0.50;;;;;;;11.91;77.46;97513.12;29394;333;64009;-53
2023/05/26 00:37:32;;;;;;;0.47;0.47;;;;;;;11.92;77.36;97514.75;29395;196;63009;-54
2023/05/26 00:38:04;;;;;;;0.50;0.50;;;;;;;11.94;77.55;97509.81;29395;227;63005;-53
2023/05/26 00:38:35;;;;;;;0.50;0.50;;;;;;;11.96;77.44;97510.34;29395;204;63009;-52
2023/05/26 00:39:07;;;;;;;0.50;0.50;;;;;;;11.95;77.67;97514.16;29395;204;63012;-52
2023/05/26 00:39:41;;;;;;;0.50;0.50;;;;;;;11.93;77.82;97515.56;29395;197;63009;-53
2023/05/26 00:40:13;;;;;;;0.50;0.50;;;;;;;11.93;78.38;97518.28;29395;215;63004;-53
2023/05/26 00:40:44;;;;;;;0.50;0.50;;;;;;;11.91;78.28;97509.59;29394;203;64013;-53
2023/05/26 00:41:16;;;;;;;0.45;0.45;;;;;;;11.88;78.69;97512.88;29395;288;63004;-53
2023/05/26 00:41:48;;;;;;;0.50;0.50;;;;;;;11.86;78.63;97512.34;29395;218;63009;-52
2023/05/26 00:42:19;;;;;;;0.50;0.50;;;;;;;11.85;79.53;97508.81;29395;223;63004;-53
2023/05/26 00:42:50;;;;;;;0.50;0.50;;;;;;;11.85;79.18;97510.72;29395;383;63008;-54
2023/05/26 00:43:30;;;;;;;0.50;0.50;;;;;;;11.85;79.35;97514.25;29394;292;64009;-54
2023/05/26 00:44:01;;;;;;;0.47;0.47;;;;;;;11.85;79.43;97511.53;29395;238;63009;-53
2023/05/26 00:44:32;;;;;;;0.50;0.50;;;;;;;11.86;79.57;97506.91;29395;244;63005;-53
2023/05/26 00:45:04;;;;;;;0.60;0.60;;;;;;;11.87;78.88;97512.06;29395;224;63009;-54
2023/05/26 00:45:36;;;;;;;0.50;0.50;;;;;;;11.89;78.44;97515.31;29394;226;64009;-53
2023/05/26 00:46:07;;;;;;;0.50;0.50;;;;;;;11.90;77.88;97511.50;29394;236;64013;-53
2023/05/26 00:46:39;;;;;;;0.50;0.50;;;;;;;11.91;78.39;97512.31;29395;218;63005;-53
2023/05/26 00:47:10;;;;;;;0.50;0.50;;;;;;;11.90;77.91;97516.94;29395;247;63009;-61
2023/05/26 00:47:42;;;;;;;0.50;0.50;;;;;;;11.91;78.22;97518.56;29395;234;63004;-52
2023/05/26 00:48:13;;;;;;;0.50;0.50;;;;;;;11.92;78.23;97513.94;29395;216;63009;-52
2023/05/26 00:48:44;;;;;;;0.50;0.50;;;;;;;11.93;77.73;97505.47;29395;217;63004;-56
2023/05/26 00:49:15;;;;;;;0.50;0.50;;;;;;;11.94;77.87;97517.97;29394;259;64013;-54
2023/05/26 00:49:52;;;;;;;0.40;0.40;;;;;;;11.94;77.52;97506.28;29395;248;63004;-52
2023/05/26 00:50:24;;;;;;;0.50;0.50;;;;;;;11.94;78.24;97512.53;29395;221;63008;-52
2023/05/26 00:50:57;;;;;;;0.50;0.50;;;;;;;11.94;78.48;97512.53;29395;225;63009;-54
2023/05/26 00:51:28;;;;;;;0.50;0.50;;;;;;;11.96;79.11;97512.25;29395;202;63009;-52
2023/05/26 00:52:00;;;;;;;0.47;0.47;;;;;;;11.94;79.36;97507.09;29395;199;63005;-52
2023/05/26 00:52:33;;;;;;;0.50;0.50;;;;;;;11.93;78.73;97518.28;29395;202;63009;-52
2023/05/26 00:53:05;;;;;;;0.40;0.40;;;;;;;11.91;78.72;97513.12;29395;234;63005;-52
2023/05/26 00:53:42;;;;;;;0.50;0.50;;;;;;;11.91;78.35;97512.31;29395;301;63009;-53
2023/05/26 00:54:14;;;;;;;0.50;0.50;;;;;;;11.91;78.80;97513.12;29395;207;63005;-53
2023/05/26 00:54:46;;;;;;;0.50;0.50;;;;;;;11.92;78.70;97514.75;29394;242;64013;-54
2023/05/26 00:55:18;;;;;;;0.50;0.50;;;;;;;11.94;78.45;97515.25;29395;243;63004;-53
2023/05/26 00:55:51;;;;;;;0.50;0.50;;;;;;;11.95;79.00;97519.59;29395;482;63009;-52
2023/05/26 00:56:27;;;;;;;0.50;0.50;;;;;;;11.94;78.66;97517.97;29395;299;63004;-52
2023/05/26 00:56:59;;;;;;;0.50;0.50;;;;;;;11.94;78.76;97515.25;29395;202;63009;-61
2023/05/26 00:57:30;;;;;;;0.50;0.50;;;;;;;11.94;78.89;97517.19;29395;262;63004;-52
2023/05/26 00:58:02;;;;;;;0.50;0.50;;;;;;;11.95;78.96;97514.16;29395;459;63008;-55
2023/05/26 00:58:34;;;;;;;0.50;0.50;;;;;;;11.97;78.82;97516.59;29395;271;63005;-52
2023/05/26 00:59:05;;;;;;;0.50;0.50;;;;;;;11.97;78.44;97525.56;29395;256;63009;-61
2023/05/26 00:59:38;;;;;;;0.40;0.40;;;;;;;11.95;78.25;97516.87;29395;226;63005;-53
2023/05/26 01:00:11;;;;;;;0.50;0.50;;;;;;;11.97;78.03;97522.84;29394;281;64013;-53
2023/05/26 01:00:42;;;;;;;0.50;0.50;;;;;;;11.99;78.44;97515.22;29395;465;63005;-53
2023/05/26 01:01:14;;;;;;;0.50;0.50;;;;;;;12.00;78.59;97522.28;29395;231;63009;-53
2023/05/26 01:01:45;;;;;;;0.45;0.45;;;;;;;12.01;78.66;97517.66;29395;254;63005;-54
2023/05/26 01:02:18;;;;;;;0.40;0.40;;;;;;;12.00;78.21;97519.56;29395;254;63009;-53
2023/05/26 01:02:55;;;;;;;0.50;0.50;;;;;;;12.02;78.08;97524.72;29395;242;63004;-53
2023/05/26 01:03:29;;;;;;;0.50;0.50;;;;;;;12.03;77.96;97515.47;29395;274;63009;-53
2023/05/26 01:04:01;;;;;;;0.45;0.45;;;;;;;12.05;78.26;97521.44;29395;238;63004;-53
2023/05/26 01:04:34;;;;;;;0.50;0.50;;;;;;;12.06;78.12;97515.69;29395;240;63023;-53
2023/05/26 01:05:09;;;;;;;0.50;0.50;;;;;;;12.07;77.72;97511.88;29395;273;63004;-53
2023/05/26 01:05:41;;;;;;;0.40;0.40;;;;;;;12.10;77.42;97520.56;29394;208;64014;-53
2023/05/26 01:06:12;;;;;;;0.50;0.50;;;;;;;12.09;76.49;97511.59;29395;231;63005;-53
2023/05/26 01:06:44;;;;;;;0.47;0.47;;;;;;;12.10;76.68;97510.50;29395;206;63009;-53
2023/05/26 01:07:16;;;;;;;0.50;0.50;;;;;;;12.11;76.58;97508.59;29395;222;63005;-53
2023/05/26 01:07:47;;;;;;;0.50;0.50;;;;;;;12.12;76.61;97513.75;29395;231;63009;-53
2023/05/26 01:08:18;;;;;;;0.50;0.50;;;;;;;12.15;77.28;97509.63;29395;215;63005;-53
2023/05/26 01:08:50;;;;;;;0.50;0.50;;;;;;;12.16;76.68;97513.97;29395;197;63009;-53
2023/05/26 01:09:22;;;;;;;0.50;0.50;;;;;;;12.16;76.27;97508.50;29395;246;63015;-53
2023/05/26 01:09:54;;;;;;;0.40;0.40;;;;;;;12.16;76.36;97503.06;29395;196;63009;-53
2023/05/26 01:10:27;;;;;;;0.50;0.50;;;;;;;12.14;76.65;97506.09;29395;228;63004;-53
2023/05/26 01:11:06;;;;;;;0.50;0.50;;;;;;;12.15;76.25;97509.63;29394;203;64013;-53
2023/05/26 01:11:48;;;;;;;0.50;0.50;;;;;;;12.16;76.63;97508.50;29395;247;63004;-53
2023/05/26 01:12:38;;;;;;;;;;;;;;;12.18;77.61;97509.03;29996;983;6008;-53
2023/05/26 01:13:17;;;;;;;0.50;0.50;;;;;;;12.17;76.91;97505.50;29400;215;63005;-54
2023/05/26 01:14:10;;;;;;;0.40;0.40;;;;;;;12.21;76.76;97505.75;29395;292;63010;-60
2023/05/26 01:14:52;;;;;;;0.50;0.50;;;;;;;12.24;76.16;97510.63;29395;289;63005;-60
2023/05/26 01:15:41;;;;;;;0.50;0.50;;;;;;;12.26;75.26;97502.97;29394;499;64009;-53
2023/05/26 01:16:14;;;;;;;0.50;0.50;;;;;;;12.29;75.13;97502.41;29395;208;63009;-52
2023/05/26 01:17:34;;;;;;;0.50;0.50;;;;;;;12.30;74.95;97509.47;29395;197;63004;-53
2023/05/26 01:18:43;;;;;;;0.50;0.50;;;;;;;12.34;74.06;97499.63;29395;202;63017;-53
2023/05/26 01:20:01;;;;;;;0.50;0.50;;;;;;;12.37;74.18;97504.50;29394;231;64008;-53
2023/05/26 01:20:56;;;;;;;0.50;0.50;;;;;;;12.41;73.75;97500.09;29395;227;63005;-53
2023/05/26 01:21:33;;;;;;;0.50;0.50;;;;;;;12.42;74.47;97507.16;29394;248;64009;-53
2023/05/26 01:23:02;;;;;;;0.50;0.50;;;;;;;12.44;73.91;97502.25;29395;505;63009;-53
2023/05/26 01:24:16;;;;;;;0.50;0.50;;;;;;;12.47;72.44;97504.38;29395;348;63005;-52
2023/05/26 01:25:31;;;;;;;0.47;0.47;;;;;;;12.47;72.86;97504.38;29395;259;63009;-53
2023/05/26 01:26:37;;;;;;;0.50;0.50;;;;;;;12.48;73.18;97500.53;29395;326;63009;-53
2023/05/26 01:27:42;;;;;;;0.50;0.50;;;;;;;12.49;73.36;97506.78;29394;196;64008;-53
2023/05/26 01:28:20;;;;;;;0.50;0.50;;;;;;;12.49;73.79;97502.16;29395;239;63009;-53
2023/05/26 01:28:55;;;;;;;0.50;0.50;;;;;;;12.50;73.54;97514.66;29395;265;63005;-53
2023/05/26 01:29:30;;;;;;;0.50;0.50;;;;;;;12.51;72.75;97510.84;29395;246;63009;-53
2023/05/26 01:30:02;;;;;;;0.50;0.50;;;;;;;12.50;72.68;97509.22;29395;330;63018;-59
2023/05/26 01:30:38;;;;;;;0.40;0.40;;;;;;;12.51;72.05;97499.97;29395;269;63009;-53
2023/05/26 01:31:10;;;;;;;0.47;0.47;;;;;;;12.51;72.17;97499.97;29395;228;63008;-53
2023/05/26 01:31:41;;;;;;;0.50;0.50;;;;;;;12.51;71.86;97502.69;29395;229;63028;-53
2023/05/26 01:32:15;;;;;;;0.50;0.50;;;;;;;12.50;71.84;97498.34;29394;311;64009;-54
2023/05/26 01:32:49;;;;;;;0.50;0.50;;;;;;;12.52;71.93;97503.50;29395;212;63009;-53
2023/05/26 01:33:20;;;;;;;0.50;0.50;;;;;;;12.53;72.12;97502.41;29395;242;63004;-54
2023/05/26 01:33:51;;;;;;;0.50;0.50;;;;;;;12.53;71.65;97497.75;29395;234;63009;-53
2023/05/26 01:34:23;;;;;;;0.50;0.50;;;;;;;12.54;71.64;97504.81;29395;487;63004;-52
2023/05/26 01:34:54;;;;;;;0.50;0.50;;;;;;;12.56;71.46;97496.38;29395;202;63008;-53
2023/05/26 01:35:26;;;;;;;0.40;0.40;;;;;;;12.52;71.42;97490.69;29395;226;63005;-53
2023/05/26 01:35:57;;;;;;;0.40;0.40;;;;;;;12.57;71.28;97503.44;29395;206;63009;-54
2023/05/26 01:36:29;;;;;;;0.40;0.40;;;;;;;12.58;71.59;97503.16;29395;267;63005;-53
2023/05/26 01:37:00;;;;;;;0.40;0.40;;;;;;;12.59;71.26;97503.97;29395;202;63009;-53
2023/05/26 01:37:32;;;;;;;0.50;0.50;;;;;;;12.58;71.27;97497.69;29394;219;64009;-53
2023/05/26 01:38:05;;;;;;;0.43;0.43;;;;;;;12.59;71.41;97510.22;29395;253;63009;-53
2023/05/26 01:38:40;;;;;;;0.40;0.40;;;;;;;12.59;71.97;97501.25;29395;205;63007;-53
2023/05/26 01:39:11;;;;;;;0.50;0.50;;;;;;;12.58;71.80;97508.59;29395;214;63009;-53
2023/05/26 01:39:43;;;;;;;0.50;0.50;;;;;;;12.58;71.82;97511.31;29395;217;63004;-53
2023/05/26 01:40:15;;;;;;;0.50;0.50;;;;;;;12.57;72.21;97515.13;29395;253;63009;-53
2023/05/26 01:40:58;;;;;;;0.50;0.50;;;;;;;12.56;72.20;97510.78;29395;198;63004;-53
2023/05/26 01:42:15;;;;;;;0.50;0.50;;;;;;;12.55;72.11;97511.91;29395;239;63009;-53
2023/05/26 01:43:19;;;;;;;0.50;0.50;;;;;;;12.56;72.11;97508.06;29394;203;64009;-53
2023/05/26 01:44:13;;;;;;;0.50;0.50;;;;;;;12.56;71.57;97502.63;29395;239;63009;-53
2023/05/26 01:44:50;;;;;;;0.43;0.43;;;;;;;12.58;71.42;97510.50;29395;247;63005;-54
2023/05/26 01:45:25;;;;;;;0.50;0.50;;;;;;;12.58;71.56;97511.31;29395;199;63009;-53
2023/05/26 01:46:27;;;;;;;0.50;0.50;;;;;;;12.59;71.49;97507.50;29395;406;63005;-53
2023/05/26 01:47:01;;;;;;;0.50;0.50;;;;;;;12.60;70.83;97503.66;29416;199;64004;-60
2023/05/26 01:47:34;;;;;;;0.43;0.43;;;;;;;12.60;71.17;97506.41;29395;197;63004;-53
2023/05/26 01:48:09;;;;;;;0.50;0.50;;;;;;;12.61;71.06;97504.47;29395;237;63009;-53
2023/05/26 01:48:50;;;;;;;0.50;0.50;;;;;;;12.60;71.28;97502.84;29395;210;63004;-53
2023/05/26 01:49:24;;;;;;;;;;;;;;;12.61;71.30;97501.75;29996;983;6004;-53
2023/05/26 01:49:58;;;;;;;0.50;0.50;;;;;;;12.61;72.10;97499.03;29400;196;63008;-52
2023/05/26 01:50:39;;;;;;;0.47;0.47;;;;;;;12.60;72.12;97508.31;29395;212;63016;-61
2023/05/26 01:51:13;;;;;;;;;;;;;;;12.57;72.54;97504.25;29996;982;6005;-53
2023/05/26 01:51:52;;;;;;;0.50;0.50;;;;;;;12.57;72.37;97508.87;29399;303;64014;-53
2023/05/26 01:52:24;;;;;;;0.40;0.40;;;;;;;12.58;71.92;97505.88;29394;228;64009;-60
2023/05/26 01:52:58;;;;;;;0.50;0.50;;;;;;;12.57;71.87;97504.25;29395;239;63009;-53
2023/05/26 01:53:33;;;;;;;0.82;0.82;;;;;;;12.57;71.84;97504.25;29395;196;63011;-53
2023/05/26 01:54:09;;;;;;;0.40;0.40;;;;;;;12.56;71.59;97502.63;29395;233;63009;-53
2023/05/26 01:54:54;;;;;;;0.50;0.50;;;;;;;12.54;72.01;97507.53;29395;252;63004;-61
2023/05/26 01:55:29;;;;;;;0.50;0.50;;;;;;;12.51;72.55;97501.87;29395;348;63009;-53
2023/05/26 01:56:01;;;;;;;0.50;0.50;;;;;;;12.50;72.33;97509.22;29394;240;64009;-54
2023/05/26 01:56:34;;;;;;;0.50;0.50;;;;;;;12.50;71.74;97503.78;29395;204;63009;-53
2023/05/26 01:57:07;;;;;;;0.40;0.40;;;;;;;12.51;71.37;97510.03;29394;229;64008;-53
2023/05/26 01:57:43;;;;;;;0.50;0.50;;;;;;;12.50;71.72;97508.41;29395;197;63008;-54
2023/05/26 01:58:15;;;;;;;0.47;0.47;;;;;;;12.50;71.87;97503.78;29395;256;63014;-54
2023/05/26 01:58:48;;;;;;;0.50;0.50;;;;;;;12.51;71.82;97510.84;29395;261;63027;-54
2023/05/26 01:59:20;;;;;;;0.47;0.47;;;;;;;12.51;71.73;97508.13;29394;231;64009;-53
2023/05/26 01:59:52;;;;;;;0.50;0.50;;;;;;;12.51;71.22;97510.84;29395;225;63009;-52
2023/05/26 02:00:25;;;;;;;0.50;0.50;;;;;;;12.51;71.44;97510.84;29395;237;63005;-53
2023/05/26 02:00:58;;;;;;;0.50;0.50;;;;;;;12.52;71.28;97506.22;29395;213;63009;-53
2023/05/26 02:01:29;;;;;;;0.50;0.50;;;;;;;12.53;71.70;97496.94;29395;196;63005;-53
2023/05/26 02:02:01;;;;;;;0.40;0.40;;;;;;;12.54;71.29;97504.00;29395;248;63009;-53
2023/05/26 02:02:32;;;;;;;0.47;0.47;;;;;;;12.54;71.53;97504.81;29395;216;63004;-60
2023/05/26 02:03:03;;;;;;;0.40;0.40;;;;;;;12.54;71.51;97504.81;29395;209;63009;-53
2023/05/26 02:03:35;;;;;;;0.40;0.40;;;;;;;12.54;71.64;97507.53;29394;220;64009;-53
2023/05/26 02:04:09;;;;;;;0.50;0.50;;;;;;;12.55;71.50;97506.44;29395;302;63009;-53
2023/05/26 02:04:41;;;;;;;0.50;0.50;;;;;;;12.55;71.59;97511.91;29395;201;63014;-53
2023/05/26 02:05:12;;;;;;;0.50;0.50;;;;;;;12.54;71.55;97502.09;29395;227;63008;-52
2023/05/26 02:05:43;;;;;;;0.50;0.50;;;;;;;12.55;72.27;97503.72;29395;327;63005;-53
2023/05/26 02:06:15;;;;;;;0.40;0.40;;;;;;;12.54;72.43;97510.28;29395;255;63009;-53
2023/05/26 02:06:46;;;;;;;0.50;0.50;;;;;;;12.52;72.23;97501.59;29395;312;63005;-53
2023/05/26 02:07:19;;;;;;;0.50;0.50;;;;;;;12.54;71.68;97509.47;29395;203;63009;-60
2023/05/26 02:07:51;;;;;;;0.40;0.40;;;;;;;12.54;71.26;97509.47;29394;257;64009;-52
2023/05/26 02:08:22;;;;;;;0.50;0.50;;;;;;;12.53;70.79;97494.22;29395;226;63009;-53
2023/05/26 02:08:53;;;;;;;0.50;0.50;;;;;;;12.54;70.87;97506.75;29395;310;63005;-58
2023/05/26 02:09:24;;;;;;;0.40;0.40;;;;;;;12.55;70.93;97495.56;29395;214;63009;-52
2023/05/26 02:09:55;;;;;;;0.40;0.40;;;;;;;12.55;71.21;97500.19;29395;232;63004;-53
2023/05/26 02:10:27;;;;;;;0.50;0.50;;;;;;;12.55;71.03;97500.19;29395;264;63009;-53
2023/05/26 02:11:01;;;;;;;0.40;0.40;;;;;;;12.56;71.10;97497.19;29395;214;63004;-55
2023/05/26 02:11:33;;;;;;;0.40;0.40;;;;;;;12.56;71.36;97497.19;29395;196;63009;-53
2023/05/26 02:12:06;;;;;;;0.40;0.40;;;;;;;12.57;71.16;97495.28;29394;215;64008;-53
2023/05/26 02:12:37;;;;;;;0.43;0.43;;;;;;;12.57;71.10;97500.72;29395;246;63008;-53
2023/05/26 02:13:08;;;;;;;0.50;0.50;;;;;;;12.57;71.19;97509.69;29395;270;63005;-53
2023/05/26 02:13:40;;;;;;;0.40;0.40;;;;;;;12.56;71.03;97499.91;29395;203;63024;-53
2023/05/26 02:14:11;;;;;;;0.50;0.50;;;;;;;12.57;71.02;97503.44;29395;257;63005;-53
2023/05/26 02:14:42;;;;;;;0.70;0.70;;;;;;;12.55;70.55;97495.56;29395;251;63009;-54
2023/05/26 02:15:14;;;;;;;0.40;0.40;;;;;;;12.55;70.96;97494.75;29395;200;63010;-54
2023/05/26 02:15:45;;;;;;;0.50;0.50;;;;;;;12.56;70.89;97507.25;29394;203;64013;-54
2023/05/26 02:16:17;;;;;;;0.50;0.50;;;;;;;12.56;70.45;97502.63;29395;238;63008;-54
2023/05/26 02:16:48;;;;;;;0.50;0.50;;;;;;;12.57;70.23;97498.81;29394;262;64013;-54
2023/05/26 02:17:19;;;;;;;0.47;0.47;;;;;;;12.58;70.42;97500.44;29394;238;64019;-53
2023/05/26 02:17:54;;;;;;;0.40;0.40;;;;;;;12.57;70.27;97498.81;29395;308;63009;-54
2023/05/26 02:18:25;;;;;;;0.50;0.50;;;;;;;12.58;70.27;97497.69;29395;212;63004;-53
2023/05/26 02:18:57;;;;;;;0.43;0.43;;;;;;;12.57;69.66;97501.53;29395;211;63008;-53
2023/05/26 02:19:29;;;;;;;0.40;0.40;;;;;;;12.57;69.39;97493.34;29395;202;63013;-53
2023/05/26 02:20:02;;;;;;;0.40;0.40;;;;;;;12.56;69.23;97501.81;29394;218;64013;-53
2023/05/26 02:20:34;;;;;;;0.50;0.50;;;;;;;12.55;70.09;97505.62;29395;228;63005;-53
2023/05/26 02:21:05;;;;;;;0.50;0.50;;;;;;;12.54;71.01;97509.47;29395;215;63009;-53
2023/05/26 02:21:37;;;;;;;0.40;0.40;;;;;;;12.52;70.88;97507.03;29395;236;63005;-54
2023/05/26 02:22:08;;;;;;;0.57;0.57;;;;;;;12.52;70.65;97504.31;29395;215;63009;-54
2023/05/26 02:22:39;;;;;;;0.50;0.50;;;;;;;12.52;70.62;97501.59;29395;204;63005;-53
2023/05/26 02:23:11;;;;;;;0.50;0.50;;;;;;;12.54;70.62;97502.09;29395;212;63009;-53
2023/05/26 02:23:46;;;;;;;0.50;0.50;;;;;;;12.54;70.20;97499.38;29395;212;63004;-53
2023/05/26 02:24:17;;;;;;;0.43;0.43;;;;;;;12.55;70.38;97511.09;29395;224;63009;-54
2023/05/26 02:24:49;;;;;;;4.40;3.95;;;;;;;12.55;70.25;97511.09;29395;224;63004;-53
2023/05/26 02:25:20;;;;;;;0.50;0.50;;;;;;;12.55;70.41;97501.00;29394;202;64013;-53
2023/05/26 02:25:54;;;;;;;0.47;0.47;;;;;;;12.55;70.25;97498.28;29394;199;64009;-53
2023/05/26 02:26:26;;;;;;;0.50;0.50;;;;;;;12.56;70.21;97504.53;29395;226;63008;-53
2023/05/26 02:26:57;;;;;;;0.40;0.40;;;;;;;12.55;70.38;97506.44;29395;198;63004;-53
2023/05/26 02:27:28;;;;;;;0.47;0.47;;;;;;;12.54;70.14;97499.38;29394;236;64014;-53
2023/05/26 02:27:59;;;;;;;0.50;0.50;;;;;;;12.56;70.12;97501.81;29395;204;63005;-61
2023/05/26 02:28:30;;;;;;;0.50;0.50;;;;;;;12.57;69.88;97509.69;29395;238;63009;-54
2023/05/26 02:29:02;;;;;;;0.50;0.50;;;;;;;12.57;70.01;97504.25;29395;200;63018;-52
2023/05/26 02:29:33;;;;;;;0.50;0.50;;;;;;;12.59;69.96;97507.50;29395;199;63009;-53
2023/05/26 02:30:06;;;;;;;0.40;0.40;;;;;;;12.60;69.70;97503.66;29394;205;64009;-53
2023/05/26 02:30:37;;;;;;;0.40;0.40;;;;;;;12.59;69.56;97507.50;29395;234;63009;-52
2023/05/26 02:31:08;;;;;;;0.50;0.50;;;;;;;12.58;69.40;97505.88;29395;234;63016;-53
2023/05/26 02:31:39;;;;;;;0.40;0.40;;;;;;;12.57;69.44;97504.25;29395;234;63009;-53
2023/05/26 02:32:11;;;;;;;0.43;0.43;;;;;;;12.57;69.85;97509.69;29395;223;63004;-54
2023/05/26 02:32:42;;;;;;;0.50;0.50;;;;;;;12.59;69.64;97510.22;29395;207;63009;-53
2023/05/26 02:33:13;;;;;;;0.50;0.50;;;;;;;12.60;69.88;97514.56;29395;266;63004;-54
2023/05/26 02:33:45;;;;;;;0.50;0.50;;;;;;;12.63;69.65;97508.53;29395;199;63008;-53
2023/05/26 02:34:16;;;;;;;0.50;0.50;;;;;;;12.62;69.75;97504.19;29395;204;63004;-53
2023/05/26 02:34:47;;;;;;;0.50;0.50;;;;;;;12.63;69.67;97511.25;29394;393;64014;-53
2023/05/26 02:35:18;;;;;;;0.43;0.43;;;;;;;12.61;69.56;97505.28;29395;211;63005;-53
2023/05/26 02:35:50;;;;;;;0.50;0.50;;;;;;;12.59;69.63;97504.78;29395;197;63009;-54
2023/05/26 02:36:21;;;;;;;0.50;0.50;;;;;;;12.58;69.73;97508.59;29395;215;63005;-53
2023/05/26 02:36:55;;;;;;;0.50;0.50;;;;;;;12.57;69.77;97504.25;29395;210;63009;-53
2023/05/26 02:37:26;;;;;;;0.50;0.50;;;;;;;12.58;69.55;97503.16;29395;251;63012;-53
2023/05/26 02:37:58;;;;;;;0.50;0.50;;;;;;;12.58;69.93;97505.06;29395;226;63009;-53
2023/05/26 02:38:29;;;;;;;0.50;0.50;;;;;;;12.59;70.14;97507.50;29395;285;63005;-54
2023/05/26 02:39:00;;;;;;;0.50;0.50;;;;;;;12.62;69.61;97501.47;29395;208;63009;-54
2023/05/26 02:39:31;;;;;;;0.50;0.50;;;;;;;12.63;69.68;97505.00;29395;241;63004;-53
2023/05/26 02:40:05;;;;;;;0.50;0.50;;;;;;;12.63;69.73;97505.00;29394;263;64013;-54
2023/05/26 02:40:36;;;;;;;0.50;0.50;;;;;;;12.62;69.80;97501.47;29395;337;63004;-54
2023/05/26 02:41:08;;;;;;;0.50;0.50;;;;;;;12.63;69.74;97507.72;29395;224;63013;-54
2023/05/26 02:41:39;;;;;;;0.50;0.50;;;;;;;12.62;69.58;97496.03;29395;224;63014;-53
2023/05/26 02:42:11;;;;;;;0.50;0.50;;;;;;;12.61;69.87;97505.28;29394;239;64009;-53
2023/05/26 02:42:42;;;;;;;0.50;0.50;;;;;;;12.63;69.68;97513.97;29395;407;63005;-54
2023/05/26 02:43:13;;;;;;;0.40;0.40;;;;;;;12.61;69.54;97504.47;29394;207;64009;-54
2023/05/26 02:43:44;;;;;;;0.50;0.50;;;;;;;12.60;69.70;97503.66;29395;248;63005;-54